Tuckahoe, New York
Current Conditions -  °F | °C
As of 2:56 PM on Thursday 23 Oct 2014 (Local Time) from KHPN Reporting Station
Broken Clouds Broken Clouds  
Wind Chill: 50°   Ceiling: 1600
Heat Index: 50°   Visibility: 10mi
Dew Point: 45°   Wind: 22mph
Humidity: 83%   Direction: 330°NNW
Pressure: 29.67"   Gusts: 32mph
Location:  40.95°N, 73.83°W
Report Text: KHPN 231856Z 33019G28KT 10SM BKN016 BKN028 10/07 A2967 RMK AO2 PK WND 33028/1852 RAE26 SLP048 P0000 T01000072
Loading
Personal Weather Stations






























Interactive Weather Map New forecast layout! Learn more

10-Day Weather Forecast

Advertisements
Track Severe Weather on mobile